• Join FlightAware (Why Join?)
  • Login
  • US Flag 
10:25PM EDT


 

Airport Tracker/Info


-or-


 

Live Flight TrackerFlight Track Log ✈ ASQ5678 ✈ 19-Aug-2013 ✈ KIAH - KLFT

Flight Track Log - Related Links

Times and Time Zones

All times are in EDT time to prevent confusion due to time zone crossing. See the ASQ5678 flight status page for this flight to view local times or setup timezone preferences in your user account.

Time Position Orientation Groundspeed Altitude Reporting Facility
EDT Latitude Longitude Course Direction KTS MPH feet Rate Location/Type
01:55PM 29.9594 -95.3414 90° East 169 194 900  Level Houston Center
01:56PM 29.9372 -95.2597 107° East 251 289 3,300 1,080 Climbing Houston Center
01:58PM 29.9834 -94.9119 90° East  Level FlightAware Approximate
01:58PM 29.9706 -95.1619 68° East 241 277 4,000  Level Houston Center
01:59PM 29.9834 -94.8065 90° East  Level FlightAware Approximate
01:59PM 29.9831 -95.0831 80° East 258 297 4,800  Level Houston Center
02:00PM 29.9834 -94.7011 90° East  Level FlightAware Approximate
02:00PM 29.9839 -94.9831 89° East 258 297 7,900  Level Houston Center
02:01PM 29.9842 -94.8900 90° East 277 319 9,000 480 Climbing Houston Center
02:02PM 29.9856 -94.7942 89° East 292 336 9,000 240 Level Houston Center
02:03PM 29.9853 -94.6994 90° East 295 339 9,500 1,260 Climbing Houston Center
02:04PM 29.9864 -94.6053 89° East 294 338 11,700 1,980 Climbing Houston Center
02:05PM 29.9892 -94.5083 88° East 298 343 13,700 1,980 Climbing Houston Center
02:06PM 29.9936 -94.4031 87° East 305 351 15,800 960 Climbing Houston Center
02:07PM 29.9978 -94.2964 87° East 334 384 15,800 -300 Level Houston Center
02:08PM 30.0131 -94.1736 82° East 379 436 15,200 -420 Descending Houston Center
02:09PM 30.0311 -94.0250 82° East 391 450 15,000 -120 Descending Houston Center
02:10PM 30.0461 -93.9031 82° East 388 447 15,000  Level Houston Center
02:11PM 30.0611 -93.7806 82° East 388 447 15,000  Level Houston Center
02:12PM 30.0767 -93.6558 82° East 395 455 15,000  Level Houston Center
02:13PM 30.0947 -93.5064 82° East 397 457 15,000  Level Houston Center
02:14PM 30.1089 -93.3814 83° East 398 458 15,000  Level Houston Center
02:15PM 30.1236 -93.2564 82° East 399 459 15,000  Level Houston Center
02:16PM 30.1389 -93.1303 82° East 400 460 15,000 -300 Level Houston Center
02:17PM 30.1478 -93.0017 85° East 403 464 14,400 -1,620 Descending Houston Center
02:18PM 30.1547 -92.8517 87° East 393 452 11,700 -1,740 Descending Houston Center
02:19PM 30.1614 -92.7347 86° East 371 427 10,900 -720 Descending Houston Center
02:20PM 30.1667 -92.6294 87° East 336 387 10,300 -1,260 Descending Houston Center
02:21PM 30.1669 -92.5364 90° East 310 357 8,400 -1,800 Descending Houston Center
02:22PM 30.1583 -92.4483 96° East 293 337 6,700 -1,800 Descending Houston Center
02:23PM 30.1508 -92.3625 96° East 279 321 4,700 -1,800 Descending Houston Center
02:24PM 30.1431 -92.2656 95° East 264 304 3,000 -1,140 Descending Houston Center
02:26PM 30.1372 -92.1886 95° East 252 290 2,400 -420 Descending Houston Center
02:27PM 30.1308 -92.1117 95° East 250 288 2,200 -240 Descending Houston Center